Time;durP1;ratioP1;P1;durP2;ratioP2;P2;SDS_P1;SDS_P2;PMS_P1;PMS_P2;Temp;Humidity;BMP_temperature;BMP_pressure;BME280_temperature;BME280_humidity;BME280_pressure;Samples;Min_cycle;Max_cycle;Signal;HPM_P1;HPM_P2
2023/03/22 00:01:06;;;;;;;;;;;;;;;8.20;100.00;93031.06;5049577;28;20401;-38
2023/03/22 00:03:31;;;;;;;;;;;;;;;8.18;100.00;93028.84;5049837;28;19913;-38
2023/03/22 00:05:57;;;;;;;;;;;;;;;8.23;100.00;93021.69;5049500;28;20012;-38
2023/03/22 00:08:22;;;;;;;;;;;;;;;7.96;100.00;93018.47;5049935;28;19974;-38
2023/03/22 00:10:47;;;;;;;;;;;;;;;8.07;100.00;93028.44;5049810;28;19955;-38
2023/03/22 00:13:12;;;;;;;;;;;;;;;8.23;100.00;93024.44;5049884;28;19923;-38
2023/03/22 00:15:38;;;;;;;;;;;;;;;8.32;100.00;93021.97;5049456;28;19917;-38
2023/03/22 00:18:04;;;;;;;;;;;;;;;8.36;99.55;93025.09;5049504;28;19923;-38
2023/03/22 00:20:30;;;;;;;;;;;;;;;8.26;99.97;93020.66;5049727;28;19962;-38
2023/03/22 00:22:55;;;;;;;;;;;;;;;8.20;100.00;93022.81;5049363;28;20438;-38
2023/03/22 00:25:21;;;;;;;;;;;;;;;8.14;100.00;93011.25;5029950;28;19924;-38
2023/03/22 00:27:46;;;;;;;;;;;;;;;8.23;100.00;93014.19;5029536;28;19920;-38
2023/03/22 00:30:11;;;;;;;;;;;;;;;8.10;100.00;93016.34;5029338;28;20004;-38
2023/03/22 00:32:37;;;;;;;;;;;;;;;8.20;100.00;93011.81;5029517;28;19924;-38
2023/03/22 00:35:05;;;;;;;;;;;;;;;8.20;100.00;93007.06;5047871;28;20380;-38
2023/03/22 00:37:33;;;;;;;;;;;;;;;8.21;100.00;93000.25;5038916;28;20011;-38
2023/03/22 00:40:02;;;;;;;;;;;;;;;8.23;100.00;93005.22;5029345;28;19955;-38
2023/03/22 00:42:27;;;;;;;;;;;;;;;8.01;99.89;93005.88;5029335;28;19952;-38
2023/03/22 00:44:53;;;;;;;;;;;;;;;7.97;100.00;93002.72;5029184;28;19956;-38
2023/03/22 00:47:18;;;;;;;;;;;;;;;7.97;100.00;92997.22;5029408;28;20365;-38
2023/03/22 00:49:43;;;;;;;;;;;;;;;8.07;100.00;93000.94;5029373;28;19913;-38
2023/03/22 00:52:09;;;;;;;;;;;;;;;8.03;100.00;92995.06;5029306;28;20294;-38
2023/03/22 00:54:34;;;;;;;;;;;;;;;8.00;100.00;92988.63;5029142;28;19963;-38
2023/03/22 00:56:59;;;;;;;;;;;;;;;7.95;100.00;92989.50;5029335;28;19913;-38
2023/03/22 00:59:25;;;;;;;;;;;;;;;8.04;100.00;92994.50;5029075;28;19913;-38
2023/03/22 01:01:50;;;;;;;;;;;;;;;8.02;100.00;92986.06;5028970;28;20004;-38
2023/03/22 01:04:16;;;;;;;;;;;;;;;8.09;100.00;92990.13;5029345;28;19983;-38
2023/03/22 01:06:42;;;;;;;;;;;;;;;7.95;100.00;92986.75;5029323;28;19917;-38
2023/03/22 01:09:08;;;;;;;;;;;;;;;7.93;100.00;92980.34;5028932;28;20290;-38
2023/03/22 01:11:33;;;;;;;;;;;;;;;8.02;100.00;92986.06;5029180;28;19917;-38
2023/03/22 01:13:58;;;;;;;;;;;;;;;7.94;100.00;92993.56;5028968;28;20400;-38
2023/03/22 01:16:23;;;;;;;;;;;;;;;7.95;100.00;92984.00;5029088;28;19996;-38
2023/03/22 01:18:49;;;;;;;;;;;;;;;7.97;100.00;92984.19;5028743;28;19924;-38
2023/03/22 01:21:14;;;;;;;;;;;;;;;8.06;100.00;92985.72;5028673;28;19948;-38
2023/03/22 01:23:39;;;;;;;;;;;;;;;8.01;100.00;92986.63;5029020;28;19917;-38
2023/03/22 01:26:05;;;;;;;;;;;;;;;8.02;100.00;92983.31;5028813;28;19948;-38
2023/03/22 01:28:30;;;;;;;;;;;;;;;8.07;100.00;92987.19;5028959;28;19963;-38
2023/03/22 01:30:55;;;;;;;;;;;;;;;8.00;100.00;92982.38;5028288;28;19917;-38
2023/03/22 01:33:21;;;;;;;;;;;;;;;7.96;100.00;92982.75;5033169;28;20011;-38
2023/03/22 01:35:46;;;;;;;;;;;;;;;7.95;100.00;92983.31;5048883;28;19975;-38
2023/03/22 01:38:12;;;;;;;;;;;;;;;7.97;100.00;92980.75;5048570;28;20420;-38
2023/03/22 01:40:37;;;;;;;;;;;;;;;7.89;100.00;92988.19;5048656;28;19963;-38
2023/03/22 01:43:02;;;;;;;;;;;;;;;7.68;100.00;92987.53;5048722;28;19924;-38
2023/03/22 01:45:30;;;;;;;;;;;;;;;7.79;100.00;92987.97;5048441;28;20496;-38
2023/03/22 01:48:00;;;;;;;;;;;;;;;7.62;100.00;92982.91;5048398;28;20397;-38
2023/03/22 01:50:25;;;;;;;;;;;;;;;7.76;100.00;92983.56;5064151;28;19913;-38
2023/03/22 01:52:51;;;;;;;;;;;;;;;7.83;100.00;92991.13;5049458;28;19917;-38
2023/03/22 01:55:17;;;;;;;;;;;;;;;7.80;100.00;92994.19;5050321;28;19925;-38
2023/03/22 01:57:42;;;;;;;;;;;;;;;7.79;100.00;92990.72;5048487;28;19966;-38
2023/03/22 02:00:09;;;;;;;;;;;;;;;7.74;100.00;92990.88;5048315;28;19960;-38
2023/03/22 02:02:35;;;;;;;;;;;;;;;7.75;100.00;92989.59;5048699;28;19935;-38
2023/03/22 02:05:00;;;;;;;;;;;;;;;7.74;100.00;92993.63;5049370;28;19913;-38
2023/03/22 02:07:26;;;;;;;;;;;;;;;7.78;100.00;92991.25;5052140;28;20011;-38
2023/03/22 02:09:54;;;;;;;;;;;;;;;7.90;100.00;92998.66;5067787;28;20030;-38
2023/03/22 02:12:25;;;;;;;;;;;;;;;7.92;100.00;92998.84;5051918;28;19920;-38
2023/03/22 02:14:56;;;;;;;;;;;;;;;7.99;100.00;93002.94;5051909;28;19920;-38
2023/03/22 02:17:26;;;;;;;;;;;;;;;7.95;100.00;92991.53;5051723;28;19927;-38
2023/03/22 02:19:57;;;;;;;;;;;;;;;7.80;100.00;92999.69;5051762;28;19920;-38
2023/03/22 02:22:28;;;;;;;;;;;;;;;7.84;100.00;92995.31;5051919;28;19920;-38
2023/03/22 02:25:00;;;;;;;;;;;;;;;7.92;100.00;92992.63;5035811;28;19924;-38
2023/03/22 02:27:29;;;;;;;;;;;;;;;7.88;100.00;93003.97;5047249;28;20000;-38
2023/03/22 02:29:54;;;;;;;;;;;;;;;7.98;100.00;93001.44;5031611;28;19921;-38
2023/03/22 02:32:37;;;;;;;;;;;;;;;8.06;100.00;93010.44;5031192;28;20309;-38
2023/03/22 02:35:08;;;;;;;;;;;;;;;7.95;100.00;93006.00;5049855;28;19921;-38
2023/03/22 02:37:37;;;;;;;;;;;;;;;7.90;100.00;93009.66;5051757;28;19917;-38
2023/03/22 02:40:15;;;;;;;;;;;;;;;7.88;100.00;93006.72;5066816;28;20464;-38
2023/03/22 02:42:56;;;;;;;;;;;;;;;7.83;100.00;93004.13;5051528;28;19913;-38
2023/03/22 02:45:40;;;;;;;;;;;;;;;7.87;100.00;93012.75;5051724;28;20024;-38
2023/03/22 02:48:10;;;;;;;;;;;;;;;8.02;100.00;93013.56;5051215;28;19970;-38
2023/03/22 02:50:45;;;;;;;;;;;;;;;8.00;100.00;93018.13;5066503;28;20404;-38
2023/03/22 02:53:18;;;;;;;;;;;;;;;7.89;100.00;93018.44;5034309;28;20298;-38
2023/03/22 02:55:43;;;;;;;;;;;;;;;8.00;100.00;93013.38;5057240;28;19917;-39
2023/03/22 02:58:15;;;;;;;;;;;;;;;7.94;100.00;93017.56;5051480;28;19919;-38
2023/03/22 03:00:40;;;;;;;;;;;;;;;7.94;100.00;93015.53;5051026;28;20028;-38
2023/03/22 03:03:10;;;;;;;;;;;;;;;7.87;100.00;93015.50;5066384;28;20448;-38
2023/03/22 03:05:36;;;;;;;;;;;;;;;7.74;100.00;93018.34;5066047;28;19912;-38
2023/03/22 03:08:02;;;;;;;;;;;;;;;7.85;100.00;93018.78;5066720;28;19966;-38
2023/03/22 03:10:27;;;;;;;;;;;;;;;7.75;100.00;93019.81;5066335;28;20354;-38
2023/03/22 03:12:52;;;;;;;;;;;;;;;7.65;100.00;93016.81;5066496;28;19917;-38
2023/03/22 03:15:18;;;;;;;;;;;;;;;7.70;100.00;93023.44;5050623;28;20042;-38
2023/03/22 03:17:43;;;;;;;;;;;;;;;7.74;100.00;93021.09;5049853;28;19917;-38
2023/03/22 03:20:11;;;;;;;;;;;;;;;7.80;100.00;93024.41;5050967;28;20285;-38
2023/03/22 03:22:42;;;;;;;;;;;;;;;7.75;100.00;93017.09;5050514;28;20403;-38
2023/03/22 03:25:09;;;;;;;;;;;;;;;7.70;100.00;93012.47;5032781;28;19917;-38
2023/03/22 03:27:36;;;;;;;;;;;;;;;7.71;100.00;93011.91;5046138;28;19913;-38
2023/03/22 03:30:10;;;;;;;;;;;;;;;7.90;100.00;93015.16;5046225;28;19918;-38
2023/03/22 03:32:54;;;;;;;;;;;;;;;7.71;100.00;93016.69;5030173;28;20007;-38
2023/03/22 03:35:27;;;;;;;;;;;;;;;7.79;100.00;93009.97;5026117;28;19988;-38
2023/03/22 03:37:56;;;;;;;;;;;;;;;7.73;100.00;93005.91;5025903;28;19913;-38
2023/03/22 03:40:31;;;;;;;;;;;;;;;7.69;100.00;93016.50;5062587;28;20377;-38
2023/03/22 03:42:57;;;;;;;;;;;;;;;7.68;100.00;93015.00;5065497;28;19925;-38
2023/03/22 03:45:22;;;;;;;;;;;;;;;7.70;100.00;93013.22;5065508;28;19916;-38
2023/03/22 03:47:54;;;;;;;;;;;;;;;7.75;100.00;93019.81;5065339;28;20316;-38
2023/03/22 03:50:19;;;;;;;;;;;;;;;7.86;100.00;93014.75;5049924;28;20415;-38
2023/03/22 03:52:45;;;;;;;;;;;;;;;7.80;100.00;93011.41;5036409;28;19913;-38
2023/03/22 03:55:10;;;;;;;;;;;;;;;7.68;100.00;93015.75;5035692;28;19923;-38
2023/03/22 03:57:35;;;;;;;;;;;;;;;7.60;100.00;93021.19;5050212;28;20312;-38
2023/03/22 04:00:00;;;;;;;;;;;;;;;7.75;100.00;93022.56;5049733;28;19920;-38
2023/03/22 04:02:26;;;;;;;;;;;;;;;7.72;100.00;93024.38;5049855;28;19917;-38
2023/03/22 04:04:51;;;;;;;;;;;;;;;7.71;100.00;93014.66;5049665;28;20011;-38
2023/03/22 04:07:16;;;;;;;;;;;;;;;7.75;100.00;93025.31;5049930;28;19925;-38
2023/03/22 04:09:41;;;;;;;;;;;;;;;7.80;100.00;93029.91;5049958;28;19912;-38
2023/03/22 04:12:10;;;;;;;;;;;;;;;7.75;100.00;93031.56;5049861;28;19917;-38
2023/03/22 04:14:35;;;;;;;;;;;;;;;7.80;100.00;93030.66;5049902;28;19913;-38
2023/03/22 04:17:00;;;;;;;;;;;;;;;7.81;100.00;93037.63;5049445;28;20304;-38
2023/03/22 04:19:26;;;;;;;;;;;;;;;7.72;100.00;93035.38;5049797;28;19921;-38
2023/03/22 04:21:51;;;;;;;;;;;;;;;7.70;100.00;93031.69;5044800;28;20008;-38
2023/03/22 04:24:17;;;;;;;;;;;;;;;7.63;100.00;93039.34;5029415;28;19917;-38
2023/03/22 04:26:42;;;;;;;;;;;;;;;7.70;100.00;93035.19;5029713;28;19921;-38
2023/03/22 04:29:08;;;;;;;;;;;;;;;7.68;100.00;93032.25;5029342;28;19917;-38
2023/03/22 04:31:35;;;;;;;;;;;;;;;7.72;100.00;93045.63;5029498;28;19917;-38
2023/03/22 04:34:04;;;;;;;;;;;;;;;7.72;100.00;93045.63;5039254;28;19965;-38
2023/03/22 04:36:35;;;;;;;;;;;;;;;7.72;100.00;93045.63;5049509;28;20317;-38
2023/03/22 04:39:00;;;;;;;;;;;;;;;7.75;100.00;93050.06;5049350;28;19913;-38
2023/03/22 04:41:25;;;;;;;;;;;;;;;7.70;100.00;93043.44;5049605;28;19919;-38
2023/03/22 04:43:51;;;;;;;;;;;;;;;7.69;100.00;93041.22;5049252;28;19935;-38
2023/03/22 04:46:16;;;;;;;;;;;;;;;7.70;100.00;93048.94;5049533;28;19924;-38
2023/03/22 04:48:42;;;;;;;;;;;;;;;7.66;100.00;93054.03;5049120;28;20312;-38
2023/03/22 04:51:08;;;;;;;;;;;;;;;7.80;100.00;93054.66;5049095;28;19952;-38
2023/03/22 04:53:37;;;;;;;;;;;;;;;7.82;100.00;93058.34;5029557;28;20612;-38
2023/03/22 04:56:06;;;;;;;;;;;;;;;7.72;100.00;93057.38;5042112;28;19917;-38
2023/03/22 04:58:32;;;;;;;;;;;;;;;7.64;100.00;93062.78;5049392;28;20007;-38
2023/03/22 05:00:57;;;;;;;;;;;;;;;7.62;100.00;93059.84;5048937;28;19921;-38
2023/03/22 05:03:23;;;;;;;;;;;;;;;7.63;100.00;93064.09;5049485;28;20550;-38
2023/03/22 05:05:52;;;;;;;;;;;;;;;7.75;100.00;93070.03;5049207;28;19963;-38
2023/03/22 05:08:18;;;;;;;;;;;;;;;7.65;100.00;93067.03;5049272;28;20356;-38
2023/03/22 05:10:43;;;;;;;;;;;;;;;7.63;100.00;93075.06;5048876;28;19964;-38
2023/03/22 05:13:08;;;;;;;;;;;;;;;7.67;100.00;93079.50;5049111;28;19952;-38
2023/03/22 05:15:34;;;;;;;;;;;;;;;7.66;100.00;93073.25;5048857;28;19916;-38
2023/03/22 05:17:59;;;;;;;;;;;;;;;7.75;100.00;93083.03;5045010;28;19917;-38
2023/03/22 05:20:24;;;;;;;;;;;;;;;7.76;100.00;93084.50;5028995;28;19935;-38
2023/03/22 05:22:50;;;;;;;;;;;;;;;7.69;100.00;93091.41;5029240;28;19944;-38
2023/03/22 05:25:15;;;;;;;;;;;;;;;7.78;100.00;93090.91;5029096;28;19913;-38
2023/03/22 05:27:40;;;;;;;;;;;;;;;7.71;100.00;93085.38;5029267;28;20309;-38
2023/03/22 05:30:06;;;;;;;;;;;;;;;7.76;100.00;93087.25;5028995;28;20417;-38
2023/03/22 05:32:31;;;;;;;;;;;;;;;7.76;100.00;93092.72;5028837;28;19917;-38
2023/03/22 05:34:56;;;;;;;;;;;;;;;7.78;100.00;93101.16;5046294;28;20359;-38
2023/03/22 05:37:22;;;;;;;;;;;;;;;7.69;100.00;93099.66;5049243;28;19921;-38
2023/03/22 05:39:47;;;;;;;;;;;;;;;7.80;100.00;93095.88;5049239;28;20633;-38
2023/03/22 05:42:12;;;;;;;;;;;;;;;7.84;100.00;93104.53;5053087;28;19913;-38
2023/03/22 05:44:38;;;;;;;;;;;;;;;7.89;100.00;93101.63;5052850;28;19936;-38
2023/03/22 05:47:05;;;;;;;;;;;;;;;7.89;100.00;93103.63;5052422;28;19924;-38
2023/03/22 05:49:31;;;;;;;;;;;;;;;7.96;100.00;93105.72;5052210;28;19913;-38
2023/03/22 05:51:56;;;;;;;;;;;;;;;7.98;100.00;93114.16;5045895;28;19996;-38
2023/03/22 05:54:21;;;;;;;;;;;;;;;7.99;100.00;93110.13;5032639;28;19996;-38
2023/03/22 05:56:47;;;;;;;;;;;;;;;8.30;100.00;93114.53;5051506;28;20371;-38
2023/03/22 05:59:12;;;;;;;;;;;;;;;8.28;100.00;93106.09;5052408;28;19947;-38
2023/03/22 06:01:38;;;;;;;;;;;;;;;8.42;100.00;93112.97;5051990;28;20431;-38
2023/03/22 06:04:03;;;;;;;;;;;;;;;8.51;100.00;93109.69;5052035;28;19919;-38
2023/03/22 06:06:29;;;;;;;;;;;;;;;8.70;100.00;93120.44;5052332;28;19916;-38
2023/03/22 06:08:54;;;;;;;;;;;;;;;8.80;98.46;93124.13;5051986;28;19974;-38
2023/03/22 06:11:20;;;;;;;;;;;;;;;8.90;98.13;93114.81;5051880;28;19919;-38
2023/03/22 06:13:45;;;;;;;;;;;;;;;8.89;98.01;93118.84;5052367;28;20004;-38
2023/03/22 06:16:10;;;;;;;;;;;;;;;8.91;98.32;93124.56;5031886;28;20463;-38
2023/03/22 06:18:36;;;;;;;;;;;;;;;8.97;96.44;93124.38;5032147;28;19919;-38
2023/03/22 06:21:01;;;;;;;;;;;;;;;8.96;97.08;93117.41;5032009;28;19913;-38
2023/03/22 06:23:26;;;;;;;;;;;;;;;9.14;95.50;93128.09;5032358;28;19952;-38
2023/03/22 06:25:51;;;;;;;;;;;;;;;9.05;94.20;93130.66;5032045;28;19913;-38
2023/03/22 06:28:17;;;;;;;;;;;;;;;9.02;95.09;93126.97;5032370;28;19913;-38
2023/03/22 06:30:42;;;;;;;;;;;;;;;9.11;94.18;93122.97;5031595;28;20469;-38
2023/03/22 06:33:07;;;;;;;;;;;;;;;9.35;93.14;93127.22;5034438;28;19924;-38
2023/03/22 06:35:33;;;;;;;;;;;;;;;9.31;94.18;93126.84;5051620;28;19940;-38
2023/03/22 06:37:58;;;;;;;;;;;;;;;9.59;92.46;93134.97;5051783;28;19913;-38
2023/03/22 06:40:24;;;;;;;;;;;;;;;9.38;91.58;93132.38;5051603;28;19960;-38
2023/03/22 06:42:49;;;;;;;;;;;;;;;9.24;91.76;93133.09;5051662;28;19927;-38
2023/03/22 06:45:15;;;;;;;;;;;;;;;9.19;92.15;93131.97;5051463;28;19964;-38
2023/03/22 06:47:41;;;;;;;;;;;;;;;9.10;91.67;93133.22;5051831;28;20362;-38
2023/03/22 06:50:06;;;;;;;;;;;;;;;8.97;91.93;93147.13;5051571;28;20125;-38
2023/03/22 06:52:32;;;;;;;;;;;;;;;9.13;91.31;93140.41;5039450;28;19945;-38
2023/03/22 06:54:57;;;;;;;;;;;;;;;9.18;93.23;93138.78;5035063;28;19963;-38
2023/03/22 06:57:22;;;;;;;;;;;;;;;9.28;92.65;93147.22;5051401;28;20304;-38
2023/03/22 06:59:47;;;;;;;;;;;;;;;9.31;92.84;93146.16;5051084;28;19971;-38
2023/03/22 07:02:13;;;;;;;;;;;;;;;9.30;90.99;93142.66;5051159;28;20062;-38
2023/03/22 07:04:38;;;;;;;;;;;;;;;9.40;91.84;93151.13;5051506;28;19920;-38
2023/03/22 07:07:03;;;;;;;;;;;;;;;9.37;91.37;93152.22;5051229;28;19956;-38
2023/03/22 07:09:29;;;;;;;;;;;;;;;9.53;91.00;93159.22;5066468;28;19912;-38
2023/03/22 07:11:54;;;;;;;;;;;;;;;9.59;91.60;93157.03;5035403;28;19921;-38
2023/03/22 07:14:20;;;;;;;;;;;;;;;9.64;89.67;93158.84;5031523;28;20309;-38
2023/03/22 07:16:45;;;;;;;;;;;;;;;9.67;89.90;93155.75;5031121;28;19944;-38
2023/03/22 07:19:11;;;;;;;;;;;;;;;9.79;90.09;93156.84;5031285;28;20333;-38
2023/03/22 07:21:36;;;;;;;;;;;;;;;9.78;89.05;93160.16;5030835;28;19913;-38
2023/03/22 07:24:02;;;;;;;;;;;;;;;9.60;85.36;93167.50;5031163;28;19944;-38
2023/03/22 07:26:29;;;;;;;;;;;;;;;9.64;87.40;93165.09;5030728;28;20007;-38
2023/03/22 07:28:54;;;;;;;;;;;;;;;9.61;88.01;93163.47;5030943;28;19913;-38
2023/03/22 07:31:20;;;;;;;;;;;;;;;9.55;89.68;93162.88;5030309;28;20434;-38
2023/03/22 07:33:47;;;;;;;;;;;;;;;9.37;90.69;93172.25;5038386;28;19916;-38
2023/03/22 07:36:12;;;;;;;;;;;;;;;9.36;91.24;93173.50;5050681;28;20298;-38
2023/03/22 07:38:37;;;;;;;;;;;;;;;9.54;90.27;93174.47;5050825;28;20004;-38
2023/03/22 07:41:03;;;;;;;;;;;;;;;9.37;90.94;93177.00;5050603;28;19916;-38
2023/03/22 07:43:28;;;;;;;;;;;;;;;9.45;90.49;93186.75;5050346;28;20345;-38
2023/03/22 07:45:53;;;;;;;;;;;;;;;9.34;90.36;93187.09;5050196;28;20020;-38
2023/03/22 07:48:19;;;;;;;;;;;;;;;9.25;90.54;93189.66;5050432;28;19913;-38
2023/03/22 07:50:45;;;;;;;;;;;;;;;9.14;90.03;93196.22;5050108;28;20745;-38
2023/03/22 07:53:10;;;;;;;;;;;;;;;9.03;90.12;93194.53;5033441;28;19917;-38
2023/03/22 07:55:36;;;;;;;;;;;;;;;8.98;91.74;93189.19;5039127;28;20007;-38
2023/03/22 07:58:01;;;;;;;;;;;;;;;8.80;90.97;93198.44;5050030;28;19913;-38
2023/03/22 08:00:27;;;;;;;;;;;;;;;8.65;92.01;93193.63;5049827;28;19975;-38
2023/03/22 08:02:52;;;;;;;;;;;;;;;8.69;90.73;93196.00;5049277;28;19912;-38
2023/03/22 08:05:17;;;;;;;;;;;;;;;8.62;92.72;93200.19;5050200;28;19959;-38
2023/03/22 08:07:44;;;;;;;;;;;;;;;8.56;92.62;93198.88;5036974;28;20222;-38
2023/03/22 08:10:10;;;;;;;;;;;;;;;8.60;92.33;93200.00;5030318;28;20332;-38
2023/03/22 08:12:35;;;;;;;;;;;;;;;8.64;92.46;93199.66;5029853;28;19917;-38
2023/03/22 08:15:01;;;;;;;;;;;;;;;8.55;93.32;93206.41;5029955;28;19920;-38
2023/03/22 08:17:28;;;;;;;;;;;;;;;8.56;93.63;93199.63;5029775;28;19999;-38
2023/03/22 08:19:54;;;;;;;;;;;;;;;8.59;92.93;93200.56;5030113;28;19913;-38
2023/03/22 08:22:23;;;;;;;;;;;;;;;8.41;92.41;93202.28;5029772;28;20365;-38
2023/03/22 08:24:49;;;;;;;;;;;;;;;8.38;94.09;93208.88;5030197;28;19956;-38
2023/03/22 08:27:15;;;;;;;;;;;;;;;8.35;94.50;93207.94;5029686;28;19944;-38
2023/03/22 08:29:41;;;;;;;;;;;;;;;8.35;94.54;93209.94;5029790;28;20328;-38
2023/03/22 08:32:06;;;;;;;;;;;;;;;8.40;94.05;93207.03;5029426;28;19913;-38
2023/03/22 08:34:35;;;;;;;;;;;;;;;8.29;94.39;93206.59;5043929;28;20538;-38
2023/03/22 08:37:02;;;;;;;;;;;;;;;8.25;96.26;93215.19;5049202;28;20410;-38
2023/03/22 08:39:27;;;;;;;;;;;;;;;8.26;96.48;93218.66;5049669;28;19974;-38
2023/03/22 08:41:53;;;;;;;;;;;;;;;8.21;97.46;93214.75;5049314;28;19913;-38
2023/03/22 08:44:18;;;;;;;;;;;;;;;8.18;98.65;93220.63;5049433;28;19920;-38
2023/03/22 08:46:43;;;;;;;;;;;;;;;8.23;98.75;93222.47;5049292;28;20350;-38
2023/03/22 08:49:09;;;;;;;;;;;;;;;8.20;98.90;93227.06;5049116;28;19912;-38
2023/03/22 08:51:34;;;;;;;;;;;;;;;8.22;98.62;93221.75;5045584;28;19917;-38
2023/03/22 08:54:00;;;;;;;;;;;;;;;8.21;98.33;93225.00;5029423;28;19939;-38
2023/03/22 08:56:26;;;;;;;;;;;;;;;8.26;99.26;93227.66;5045565;28;19931;-38
2023/03/22 08:58:51;;;;;;;;;;;;;;;8.24;98.72;93223.94;5049234;28;20385;-38
2023/03/22 09:01:19;;;;;;;;;;;;;;;8.26;97.58;93237.94;5048993;28;19925;-38
2023/03/22 09:03:45;;;;;;;;;;;;;;;8.20;98.79;93237.31;5039136;28;19996;-38
2023/03/22 09:06:10;;;;;;;;;;;;;;;8.26;99.24;93232.44;5029352;28;20004;-38
2023/03/22 09:08:35;;;;;;;;;;;;;;;8.30;98.38;93232.81;5029580;28;19974;-38
2023/03/22 09:11:01;;;;;;;;;;;;;;;8.31;98.27;93229.53;5029559;28;20419;-38
2023/03/22 09:13:27;;;;;;;;;;;;;;;8.34;98.54;93241.47;5029569;28;19924;-38
2023/03/22 09:15:52;;;;;;;;;;;;;;;8.17;99.43;93238.38;5033237;28;19963;-38
2023/03/22 09:18:18;;;;;;;;;;;;;;;8.04;99.20;93236.44;5033203;28;19964;-38
2023/03/22 09:20:44;;;;;;;;;;;;;;;7.89;100.00;93238.31;5033472;28;19920;-38
2023/03/22 09:23:09;;;;;;;;;;;;;;;8.06;100.00;93238.66;5033042;28;19913;-38
2023/03/22 09:25:35;;;;;;;;;;;;;;;7.79;99.69;93251.81;5033177;28;19971;-38
2023/03/22 09:28:01;;;;;;;;;;;;;;;7.72;100.00;93246.22;5032918;28;19917;-38
2023/03/22 09:30:26;;;;;;;;;;;;;;;7.68;100.00;93245.81;5033128;28;19916;-38
2023/03/22 09:32:51;;;;;;;;;;;;;;;7.60;100.00;93240.25;5032717;28;20009;-38
2023/03/22 09:35:17;;;;;;;;;;;;;;;7.59;100.00;93250.50;5052875;28;20012;-38
2023/03/22 09:37:44;;;;;;;;;;;;;;;7.72;100.00;93246.97;5053064;28;20446;-38
2023/03/22 09:40:10;;;;;;;;;;;;;;;7.75;100.00;93256.16;5052494;28;19965;-38
2023/03/22 09:42:37;;;;;;;;;;;;;;;7.65;100.00;93258.63;5052903;28;20015;-38
2023/03/22 09:45:03;;;;;;;;;;;;;;;7.74;100.00;93260.91;5068213;28;19913;-38
2023/03/22 09:47:31;;;;;;;;;;;;;;;7.83;100.00;93259.72;5052773;28;20412;-38
2023/03/22 09:50:00;;;;;;;;;;;;;;;7.92;100.00;93260.00;5052669;28;19940;-38
2023/03/22 09:52:25;;;;;;;;;;;;;;;7.83;100.00;93257.69;5068132;28;19916;-40
2023/03/22 09:54:50;;;;;;;;;;;;;;;7.94;100.00;93251.94;5049462;28;20302;-38
2023/03/22 09:57:19;;;;;;;;;;;;;;;7.94;100.00;93265.69;5047928;28;19917;-38
2023/03/22 09:59:57;;;;;;;;;;;;;;;7.97;100.00;93256.34;5032110;28;19950;-38
2023/03/22 10:02:25;;;;;;;;;;;;;;;8.10;99.22;93263.81;5032709;28;19958;-38
2023/03/22 10:04:50;;;;;;;;;;;;;;;8.15;100.00;93268.41;5032439;28;20364;-38
2023/03/22 10:07:15;;;;;;;;;;;;;;;8.22;100.00;93267.75;5032335;28;19917;-38
2023/03/22 10:09:49;;;;;;;;;;;;;;;8.31;100.00;93270.06;5032136;28;19960;-38
2023/03/22 10:12:25;;;;;;;;;;;;;;;8.44;100.00;93269.22;5047642;28;20000;-38
2023/03/22 10:14:56;;;;;;;;;;;;;;;8.55;99.66;93268.94;5047896;28;19944;-38
2023/03/22 10:17:23;;;;;;;;;;;;;;;8.84;99.62;93268.41;5047765;28;19978;-38
2023/03/22 10:19:48;;;;;;;;;;;;;;;8.99;97.79;93268.47;5047758;28;20586;-38
2023/03/22 10:22:14;;;;;;;;;;;;;;;9.18;97.96;93263.44;5032259;28;19996;-38
2023/03/22 10:24:39;;;;;;;;;;;;;;;9.38;96.49;93263.88;5047458;28;20340;-38
2023/03/22 10:27:11;;;;;;;;;;;;;;;9.45;94.48;93274.94;5031448;28;19917;-38
2023/03/22 10:29:37;;;;;;;;;;;;;;;9.44;91.58;93272.75;5047582;28;20000;-38
2023/03/22 10:32:15;;;;;;;;;;;;;;;9.34;93.98;93274.53;5047131;28;19921;-38
2023/03/22 10:34:42;;;;;;;;;;;;;;;9.31;94.57;93275.63;5047419;28;20301;-38
2023/03/22 10:37:08;;;;;;;;;;;;;;;9.49;93.86;93269.81;5051477;28;19932;-38
2023/03/22 10:39:34;;;;;;;;;;;;;;;9.54;93.75;93265.41;5067012;28;19912;-38
2023/03/22 10:42:00;;;;;;;;;;;;;;;9.43;93.10;93268.50;5051953;28;19970;-38
2023/03/22 10:44:26;;;;;;;;;;;;;;;9.44;92.64;93261.72;5067277;28;19917;-38
2023/03/22 10:46:51;;;;;;;;;;;;;;;9.48;92.50;93262.84;5066878;28;19924;-38
2023/03/22 10:49:28;;;;;;;;;;;;;;;9.43;92.46;93254.72;5066755;28;19923;-38
2023/03/22 10:51:56;;;;;;;;;;;;;;;9.65;93.51;93254.06;5060749;28;19920;-38
2023/03/22 10:54:21;;;;;;;;;;;;;;;9.92;93.78;93255.94;5046713;28;19913;-38
2023/03/22 10:56:46;;;;;;;;;;;;;;;9.84;93.77;93248.94;5051069;28;20004;-38
2023/03/22 10:59:31;;;;;;;;;;;;;;;9.92;91.52;93244.19;5031630;28;19921;-38
2023/03/22 11:01:56;;;;;;;;;;;;;;;9.90;91.98;93255.78;5031612;28;19925;-38
2023/03/22 11:04:21;;;;;;;;;;;;;;;10.06;90.83;93259.28;5031237;28;19917;-38
2023/03/22 11:06:50;;;;;;;;;;;;;;;9.96;89.89;93257.63;5031666;28;19921;-38
2023/03/22 11:09:16;;;;;;;;;;;;;;;10.21;89.92;93251.06;5031430;28;19917;-38
2023/03/22 11:12:10;;;;;;;;;;;;;;;10.20;87.28;93241.28;5031101;28;20339;-38
2023/03/22 11:14:36;;;;;;;;;;;;;;;10.29;88.55;93240.00;5034758;28;19917;-38
2023/03/22 11:17:05;;;;;;;;;;;;;;;10.32;88.57;93238.91;5046178;28;20521;-38
2023/03/22 11:19:34;;;;;;;;;;;;;;;10.63;85.86;93235.56;5031226;28;19920;-38
2023/03/22 11:22:00;;;;;;;;;;;;;;;10.68;84.93;93235.97;5046245;28;19913;-38
2023/03/22 11:24:25;;;;;;;;;;;;;;;10.65;84.16;93230.22;5046582;28;20016;-38
2023/03/22 11:27:21;;;;;;;;;;;;;;;10.35;78.86;93235.06;5046208;28;19912;-38
2023/03/22 11:29:47;;;;;;;;;;;;;;;10.14;83.70;93232.47;5030424;28;19920;-38
2023/03/22 11:32:20;;;;;;;;;;;;;;;10.23;81.97;93236.69;5030609;28;19917;-38
2023/03/22 11:34:46;;;;;;;;;;;;;;;10.39;81.11;93232.66;5046768;28;19916;-38
2023/03/22 11:37:14;;;;;;;;;;;;;;;10.37;81.83;93226.97;5049955;28;19924;-38
2023/03/22 11:39:44;;;;;;;;;;;;;;;10.14;82.82;93224.19;5065949;28;19970;-38
2023/03/22 11:42:13;;;;;;;;;;;;;;;9.92;80.75;93228.38;5066296;28;20423;-38
2023/03/22 11:44:38;;;;;;;;;;;;;;;9.83;84.03;93219.91;5065968;28;19913;-38
2023/03/22 11:47:03;;;;;;;;;;;;;;;9.70;86.05;93222.84;5065751;28;19920;-38
2023/03/22 11:49:39;;;;;;;;;;;;;;;9.89;83.57;93217.72;5065671;28;19919;-38
2023/03/22 11:52:27;;;;;;;;;;;;;;;9.99;85.07;93215.88;5057674;28;19951;-38
2023/03/22 11:54:53;;;;;;;;;;;;;;;10.06;84.40;93223.44;5027262;28;19956;-38
2023/03/22 11:57:23;;;;;;;;;;;;;;;10.19;83.60;93226.03;5045695;28;19960;-38
2023/03/22 12:00:06;;;;;;;;;;;;;;;9.92;84.72;93228.38;5045382;28;19924;-38
2023/03/22 12:02:33;;;;;;;;;;;;;;;10.01;86.40;93229.09;5045443;28;19960;-38
2023/03/22 12:05:01;;;;;;;;;;;;;;;10.09;86.12;93229.88;5045334;28;20015;-38
2023/03/22 12:07:26;;;;;;;;;;;;;;;10.13;82.91;93231.00;5045840;28;19967;-38
2023/03/22 12:10:11;;;;;;;;;;;;;;;10.16;82.24;93237.44;5045482;28;19913;-38
2023/03/22 12:12:37;;;;;;;;;;;;;;;9.97;84.92;93231.50;5030003;28;20024;-38
2023/03/22 12:15:13;;;;;;;;;;;;;;;9.94;83.18;93234.06;5030052;28;19927;-38
2023/03/22 12:18:02;;;;;;;;;;;;;;;9.96;83.38;93221.78;5045364;28;19958;-38
2023/03/22 12:20:39;;;;;;;;;;;;;;;10.13;83.43;93222.00;5026641;28;20756;-38
2023/03/22 12:23:15;;;;;;;;;;;;;;;10.35;83.23;93221.97;5029703;28;19971;-38
2023/03/22 12:25:41;;;;;;;;;;;;;;;10.16;84.87;93218.84;5030127;28;19920;-38
2023/03/22 12:28:08;;;;;;;;;;;;;;;10.32;85.34;93214.81;5044976;28;19917;-38
2023/03/22 12:30:41;;;;;;;;;;;;;;;10.39;85.62;93225.13;5045060;28;19916;-38
2023/03/22 12:33:25;;;;;;;;;;;;;;;10.14;86.26;93215.91;5047279;28;20369;-38
2023/03/22 12:35:51;;;;;;;;;;;;;;;10.24;85.34;93219.63;5049346;28;19917;-38
2023/03/22 12:38:23;;;;;;;;;;;;;;;10.08;85.42;93218.09;5049352;28;19916;-38
2023/03/22 12:40:48;;;;;;;;;;;;;;;10.19;83.72;93220.53;5049621;28;20375;-38
2023/03/22 12:43:15;;;;;;;;;;;;;;;10.29;84.79;93215.91;5064827;28;19947;-38
2023/03/22 12:45:52;;;;;;;;;;;;;;;10.42;85.03;93207.44;5065052;28;20313;-38
2023/03/22 12:48:20;;;;;;;;;;;;;;;10.56;83.21;93217.00;5058197;28;19940;-38
2023/03/22 12:50:52;;;;;;;;;;;;;;;10.63;83.51;93215.53;5028976;28;20378;-38